createdAt,value
2023-03-26T00:03:17.845Z,44.08
2023-03-26T00:08:20.004Z,41.67
2023-03-26T00:13:22.165Z,39.55
2023-03-26T00:18:42.958Z,42.50
2023-03-26T00:23:45.752Z,43.22
2023-03-26T00:28:51.164Z,42.83
2023-03-26T00:33:56.709Z,38.88
2023-03-26T00:38:58.950Z,37.40
2023-03-26T00:44:01.251Z,36.08
2023-03-26T00:49:04.274Z,32.85
2023-03-26T00:54:08.016Z,36.92
2023-03-26T00:59:10.202Z,33.15
2023-03-26T01:04:21.310Z,26.25
2023-03-26T01:09:26.310Z,24.98
2023-03-26T01:14:31.905Z,27.40
2023-03-26T01:19:54.357Z,30.17
2023-03-26T01:24:57.119Z,29.98
2023-03-26T01:30:11.504Z,30.67
2023-03-26T01:35:22.065Z,29.95
2023-03-26T01:40:27.398Z,28.55
2023-03-26T01:45:32.109Z,36.30
2023-03-26T01:50:34.288Z,42.05
2023-03-26T01:55:43.772Z,38.58
2023-03-26T02:01:06.676Z,39.28
2023-03-26T02:06:10.130Z,51.92
2023-03-26T02:11:16.585Z,54.65
2023-03-26T02:16:20.042Z,53.45
2023-03-26T02:21:26.390Z,54.80
2023-03-26T02:26:29.580Z,57.40
2023-03-26T02:31:50.160Z,58.22
2023-03-26T02:36:52.487Z,59.80
2023-03-26T02:41:55.518Z,65.47
2023-03-26T02:46:57.871Z,62.17
2023-03-26T02:52:18.927Z,62.40
2023-03-26T02:57:24.459Z,58.38
2023-03-26T03:02:44.575Z,57.00
2023-03-26T03:08:06.808Z,55.70
2023-03-26T03:13:11.599Z,60.80
2023-03-26T03:18:13.883Z,54.35
2023-03-26T03:23:16.428Z,50.75
2023-03-26T03:28:19.649Z,52.33
2023-03-26T03:33:22.075Z,47.05
2023-03-26T03:38:24.592Z,38.80
2023-03-26T03:43:29.281Z,43.53
2023-03-26T03:48:51.701Z,39.80
2023-03-26T03:54:01.733Z,45.33
2023-03-26T03:59:26.396Z,46.33
2023-03-26T04:04:28.793Z,45.05
2023-03-26T04:09:36.179Z,41.13
2023-03-26T04:14:47.167Z,42.88
2023-03-26T04:19:55.120Z,41.60
2023-03-26T04:25:02.814Z,41.90
2023-03-26T04:30:27.629Z,37.85
2023-03-26T04:35:41.949Z,40.75
2023-03-26T04:40:50.160Z,39.53
2023-03-26T04:46:18.917Z,39.22
2023-03-26T04:51:38.496Z,42.28
2023-03-26T04:57:04.444Z,37.72
2023-03-26T05:02:26.869Z,35.55
2023-03-26T05:07:30.721Z,37.00
2023-03-26T05:12:36.045Z,36.50
2023-03-26T05:22:52.374Z,37.90
2023-03-26T05:27:59.886Z,33.97
2023-03-26T05:33:09.378Z,34.08
2023-03-26T05:38:19.217Z,36.17
2023-03-26T05:43:22.793Z,37.80
2023-03-26T05:48:47.040Z,37.15
2023-03-26T05:53:49.633Z,36.75
2023-03-26T05:58:57.778Z,35.50
2023-03-26T06:04:18.404Z,36.88
2023-03-26T06:09:38.870Z,37.22
2023-03-26T06:14:43.105Z,36.15
2023-03-26T06:25:12.005Z,33.17
2023-03-26T06:30:26.673Z,33.55
2023-03-26T06:35:36.947Z,33.03
2023-03-26T06:40:39.258Z,31.83
2023-03-26T06:46:01.634Z,35.00
2023-03-26T06:51:22.385Z,36.35
2023-03-26T06:56:43.299Z,36.03
2023-03-26T07:02:11.285Z,29.50
2023-03-26T07:07:32.831Z,34.65
2023-03-26T07:13:07.430Z,31.90
2023-03-26T07:18:24.924Z,33.47
2023-03-26T07:23:28.317Z,42.22
2023-03-26T07:29:05.262Z,43.88
2023-03-26T07:34:22.691Z,42.58
2023-03-26T07:40:13.353Z,33.83
2023-03-26T07:45:39.975Z,35.10
2023-03-26T07:51:01.061Z,24.27
2023-03-26T07:56:29.339Z,5.10
2023-03-26T08:01:40.251Z,4.80
2023-03-26T08:06:49.758Z,3.10
2023-03-26T08:12:30.432Z,3.25
2023-03-26T08:17:38.272Z,3.70
2023-03-26T08:22:46.000Z,3.38
2023-03-26T08:27:54.611Z,4.10
2023-03-26T08:33:02.637Z,4.13
2023-03-26T08:38:04.949Z,2.97
2023-03-26T08:43:07.148Z,3.97
2023-03-26T08:48:18.624Z,4.10
2023-03-26T08:53:20.774Z,4.70
2023-03-26T08:58:42.380Z,5.13
2023-03-26T09:03:50.913Z,3.55
2023-03-26T09:09:00.070Z,4.25
2023-03-26T09:14:34.509Z,3.75
2023-03-26T09:19:55.172Z,4.18
2023-03-26T09:25:03.368Z,4.28
2023-03-26T09:30:23.751Z,4.43
2023-03-26T09:40:42.737Z,5.13
2023-03-26T09:45:55.731Z,4.85
2023-03-26T09:51:07.184Z,4.53
2023-03-26T09:56:09.567Z,5.25
2023-03-26T10:01:12.791Z,5.47
2023-03-26T10:06:21.574Z,5.63
2023-03-26T10:11:42.446Z,5.53
2023-03-26T10:17:05.233Z,5.57
2023-03-26T10:22:09.576Z,5.32
2023-03-26T10:27:17.810Z,4.68
2023-03-26T10:32:29.278Z,5.70
2023-03-26T10:37:34.285Z,4.85
2023-03-26T10:42:40.981Z,6.15
2023-03-26T10:48:02.216Z,5.20
2023-03-26T10:53:12.932Z,5.28
2023-03-26T10:58:15.358Z,5.15
2023-03-26T11:03:18.519Z,5.35
2023-03-26T11:08:31.762Z,5.70
2023-03-26T11:13:41.296Z,5.55
2023-03-26T11:18:53.636Z,5.25
2023-03-26T11:24:05.244Z,6.32
2023-03-26T11:29:32.639Z,5.55
2023-03-26T11:34:39.103Z,5.03
2023-03-26T11:39:49.043Z,6.05
2023-03-26T11:45:05.485Z,5.38
2023-03-26T11:50:15.871Z,5.25
2023-03-26T11:55:18.255Z,4.45
2023-03-26T12:00:23.243Z,4.60
2023-03-26T12:05:27.642Z,5.28
2023-03-26T12:10:38.291Z,4.20
2023-03-26T12:15:43.835Z,4.15
2023-03-26T12:20:46.034Z,3.70
2023-03-26T12:26:04.447Z,3.58
2023-03-26T12:31:08.087Z,3.55
2023-03-26T12:36:19.568Z,2.33
2023-03-26T12:43:40.204Z,2.70
2023-03-26T12:47:59.033Z,2.58
2023-03-26T12:52:38.449Z,3.17
2023-03-26T12:57:46.988Z,3.05
2023-03-26T13:02:55.219Z,2.42
2023-03-26T13:08:15.943Z,2.25
2023-03-26T13:13:28.987Z,1.90
2023-03-26T13:18:37.874Z,2.42
2023-03-26T13:23:44.261Z,2.80
2023-03-26T13:28:54.120Z,2.80
2023-03-26T13:34:19.744Z,2.92
2023-03-26T13:39:34.298Z,3.00
2023-03-26T13:44:36.432Z,3.35
2023-03-26T13:49:41.984Z,4.00
2023-03-26T13:54:56.401Z,5.60
2023-03-26T14:00:26.942Z,4.85
2023-03-26T14:05:45.095Z,3.70
2023-03-26T14:10:54.848Z,4.20
2023-03-26T14:16:04.389Z,4.82
2023-03-26T14:21:12.426Z,5.50
2023-03-26T14:26:23.642Z,6.43
2023-03-26T14:31:44.623Z,5.20
2023-03-26T14:36:53.133Z,4.85
2023-03-26T14:42:07.685Z,5.97
2023-03-26T14:47:14.848Z,5.10
2023-03-26T14:52:21.752Z,6.75
2023-03-26T15:02:45.070Z,7.00
2023-03-26T15:08:05.512Z,6.65
2023-03-26T15:13:10.689Z,6.47
2023-03-26T15:18:31.281Z,5.93
2023-03-26T15:23:49.912Z,6.97
2023-03-26T15:29:12.946Z,5.93
2023-03-26T15:34:34.329Z,5.22
2023-03-26T15:39:58.937Z,6.00
2023-03-26T15:45:05.835Z,6.18
2023-03-26T15:50:08.412Z,8.43
2023-03-26T15:55:16.839Z,5.35
2023-03-26T16:00:29.480Z,3.63
2023-03-26T16:05:45.952Z,5.32
2023-03-26T16:10:57.600Z,4.45
2023-03-26T16:16:02.753Z,4.63
2023-03-26T16:21:31.410Z,4.00
2023-03-26T16:26:47.282Z,3.90
2023-03-26T16:32:09.262Z,4.43
2023-03-26T16:37:26.868Z,5.30
2023-03-26T16:42:38.740Z,4.28
2023-03-26T16:48:04.117Z,4.20
2023-03-26T16:53:18.148Z,4.75
2023-03-26T16:58:29.787Z,5.30
2023-03-26T17:03:35.697Z,4.50
2023-03-26T17:14:03.481Z,4.50
2023-03-26T17:19:22.019Z,4.30
2023-03-26T17:24:33.671Z,3.88
2023-03-26T17:35:02.516Z,3.13
2023-03-26T17:40:12.615Z,2.70
2023-03-26T17:45:23.763Z,3.33
2023-03-26T17:50:44.824Z,3.08
2023-03-26T17:55:50.058Z,3.22
2023-03-26T18:00:57.179Z,3.53
2023-03-26T18:06:11.161Z,3.05
2023-03-26T18:11:24.637Z,3.20
2023-03-26T18:16:38.990Z,2.80
2023-03-26T18:21:41.402Z,3.20
2023-03-26T18:26:47.452Z,2.78
2023-03-26T18:31:53.428Z,2.50
2023-03-26T18:36:55.675Z,2.65
2023-03-26T18:41:58.165Z,2.88
2023-03-26T18:47:00.421Z,4.13
2023-03-26T18:52:02.691Z,3.47
2023-03-26T18:57:15.920Z,2.88
2023-03-26T19:02:19.285Z,3.60
2023-03-26T19:07:22.790Z,3.28
2023-03-26T19:12:29.722Z,3.03
2023-03-26T19:17:34.786Z,3.13
2023-03-26T19:22:37.244Z,3.33
2023-03-26T19:27:39.579Z,3.47
2023-03-26T19:32:52.489Z,3.20
2023-03-26T19:37:54.691Z,2.80
2023-03-26T19:42:59.872Z,2.67
2023-03-26T19:48:14.147Z,2.85
2023-03-26T19:53:18.007Z,2.92
2023-03-26T19:58:20.122Z,2.90
2023-03-26T20:03:24.765Z,3.00
2023-03-26T20:08:27.340Z,3.05
2023-03-26T20:13:31.466Z,3.72
2023-03-26T20:18:34.656Z,3.10
2023-03-26T20:23:37.297Z,3.95
2023-03-26T20:28:47.726Z,3.25
2023-03-26T20:33:52.076Z,3.90
2023-03-26T20:38:54.309Z,4.40
2023-03-26T20:43:57.220Z,4.15
2023-03-26T20:49:00.042Z,4.75
2023-03-26T20:54:02.497Z,3.72
2023-03-26T20:59:11.018Z,5.18
2023-03-26T21:04:14.309Z,3.40
2023-03-26T21:09:18.993Z,4.93
2023-03-26T21:14:32.756Z,4.65
2023-03-26T21:19:34.979Z,5.15
2023-03-26T21:24:52.072Z,4.97
2023-03-26T21:29:54.814Z,4.40
2023-03-26T21:34:59.321Z,6.40
2023-03-26T21:40:12.740Z,5.55
2023-03-26T21:45:15.101Z,6.00
2023-03-26T21:50:19.614Z,5.65
2023-03-26T21:55:23.300Z,4.65
2023-03-26T22:00:30.724Z,5.95
2023-03-26T22:05:45.128Z,5.80
2023-03-26T22:10:48.203Z,5.25
2023-03-26T22:15:50.429Z,4.47
2023-03-26T22:20:53.288Z,3.78
2023-03-26T22:25:55.496Z,4.43
2023-03-26T22:30:58.566Z,5.07
2023-03-26T22:36:01.571Z,5.22
2023-03-26T22:41:04.752Z,5.90
2023-03-26T22:46:07.128Z,5.35
2023-03-26T22:51:09.473Z,5.90
2023-03-26T22:56:13.876Z,7.50
2023-03-26T23:01:18.176Z,7.30
2023-03-26T23:06:21.507Z,6.55
2023-03-26T23:11:24.166Z,7.15
2023-03-26T23:16:26.784Z,7.22
2023-03-26T23:21:28.939Z,7.38
2023-03-26T23:26:43.904Z,6.22
2023-03-26T23:31:53.178Z,7.70
2023-03-26T23:36:55.351Z,6.22
2023-03-26T23:41:57.575Z,7.20
2023-03-26T23:47:00.938Z,5.63
2023-03-26T23:52:06.206Z,6.43
2023-03-26T23:57:09.159Z,5.38
